Time;durP1;ratioP1;P1;durP2;ratioP2;P2;SDS_P1;SDS_P2;PMS_P1;PMS_P2;Temp;Humidity;BMP_temperature;BMP_pressure;BME280_temperature;BME280_humidity;BME280_pressure;Samples;Min_cycle;Max_cycle;Signal;HPM_P1;HPM_P2
2022/08/13 00:01:21;;;;;;;3.15;1.60;;;;;;;26.06;33.39;99658.06;4174407;28;20243;-63
2022/08/13 00:03:23;;;;;;;2.13;1.63;;;;;;;25.55;33.92;99665.88;4173306;28;20293;-63
2022/08/13 00:05:45;;;;;;;2.50;1.92;;;;;;;26.12;33.07;99667.91;4173682;28;20674;-63
2022/08/13 00:07:46;;;;;;;7.45;1.63;;;;;;;26.40;33.24;99659.56;4173183;28;20298;-64
2022/08/13 00:09:51;;;;;;;3.13;1.80;;;;;;;25.72;34.14;99666.53;4174833;28;20266;-64
2022/08/13 00:14:17;;;;;;;2.88;1.70;;;;;;;25.56;34.34;99665.63;4176622;28;20244;-63
2022/08/13 00:16:37;;;;;;;2.22;1.98;;;;;;;25.15;34.83;99667.97;4178486;28;20224;-63
2022/08/13 00:18:40;;;;;;;2.05;1.63;;;;;;;25.39;34.55;99663.03;4176683;28;20293;-63
2022/08/13 00:20:50;;;;;;;3.78;2.17;;;;;;;25.24;34.98;99649.28;4176583;28;20227;-64
2022/08/13 00:22:58;;;;;;;4.95;1.85;;;;;;;25.21;34.65;99666.13;4179328;28;20239;-64
2022/08/13 00:25:06;;;;;;;3.13;1.42;;;;;;;25.11;35.20;99655.16;4174511;28;20234;-63
2022/08/13 00:27:11;;;;;;;2.30;1.60;;;;;;;24.65;35.49;99645.41;4180408;28;20246;-64
2022/08/13 00:29:15;;;;;;;1.70;1.60;;;;;;;25.27;34.90;99643.31;4175083;28;20288;-64
2022/08/13 00:31:27;;;;;;;1.50;1.40;;;;;;;25.05;35.02;99644.22;4177569;28;20277;-63
2022/08/13 00:33:29;;;;;;;3.83;1.80;;;;;;;25.07;34.85;99646.69;4174759;28;20286;-63
2022/08/13 00:35:49;;;;;;;2.07;1.60;;;;;;;25.00;35.12;99651.50;4173843;28;20220;-63
2022/08/13 00:37:55;;;;;;;1.70;1.60;;;;;;;24.86;35.46;99651.09;4177628;28;20236;-63
2022/08/13 00:39:57;;;;;;;1.70;1.60;;;;;;;24.52;36.03;99648.53;4171201;28;20681;-63
2022/08/13 00:42:25;;;;;;;2.60;1.90;;;;;;;24.59;35.76;99648.34;4174213;28;20250;-63
2022/08/13 00:44:31;;;;;;;3.35;1.65;;;;;;;24.60;35.73;99647.28;4178815;28;20643;-64
2022/08/13 00:46:34;;;;;;;3.60;1.60;;;;;;;24.45;36.06;99646.00;4180278;28;20235;-64
2022/08/13 00:48:42;;;;;;;3.40;1.90;;;;;;;24.66;36.02;99636.16;4173353;28;20892;-64
2022/08/13 00:50:56;;;;;;;2.15;1.75;;;;;;;24.33;36.10;99647.19;4174873;28;20720;-64
2022/08/13 00:53:02;;;;;;;3.47;1.70;;;;;;;24.02;36.80;99630.50;4173343;28;20231;-63
2022/08/13 00:55:08;;;;;;;3.40;1.80;;;;;;;24.17;36.55;99610.88;4178214;28;20231;-63
2022/08/13 00:57:12;;;;;;;3.37;2.20;;;;;;;24.05;36.68;99617.22;4173299;28;20324;-63
2022/08/13 00:59:19;;;;;;;1.53;1.43;;;;;;;24.24;36.48;99622.38;4177207;28;20228;-64
2022/08/13 01:01:25;;;;;;;1.77;1.67;;;;;;;24.12;36.66;99625.19;4179447;28;20234;-64
2022/08/13 01:03:37;;;;;;;3.67;2.17;;;;;;;24.23;36.41;99629.72;4174314;28;20251;-63
2022/08/13 01:05:59;;;;;;;2.47;1.83;;;;;;;23.97;36.69;99625.81;4176936;28;20271;-64
2022/08/13 01:08:01;;;;;;;2.87;1.40;;;;;;;23.81;37.12;99627.50;4176385;28;20235;-64
2022/08/13 01:10:09;;;;;;;2.73;1.77;;;;;;;23.85;36.98;99634.06;4174848;28;20342;-63
2022/08/13 01:12:21;;;;;;;5.47;1.80;;;;;;;23.83;36.72;99628.06;4172579;28;20228;-63
2022/08/13 01:14:32;;;;;;;3.10;1.80;;;;;;;22.84;38.44;99621.28;4173901;28;20463;-63
2022/08/13 01:16:36;;;;;;;2.03;1.50;;;;;;;23.90;37.20;99617.84;4171925;28;20895;-63
2022/08/13 01:18:40;;;;;;;3.10;2.00;;;;;;;23.96;36.78;99624.19;4178974;28;20620;-64
2022/08/13 01:20:48;;;;;;;4.30;2.27;;;;;;;23.77;37.16;99626.34;4174242;28;20230;-64
2022/08/13 01:22:52;;;;;;;2.67;1.73;;;;;;;24.25;36.45;99624.84;4174059;28;20235;-64
2022/08/13 01:24:56;;;;;;;3.07;1.87;;;;;;;24.38;36.13;99633.69;4174565;28;20362;-63
2022/08/13 01:26:58;;;;;;;2.30;2.10;;;;;;;23.80;36.94;99634.00;4176397;28;21002;-63
2022/08/13 01:29:05;;;;;;;2.47;1.90;;;;;;;24.31;36.30;99632.00;4179709;28;20231;-63
2022/08/13 01:31:14;;;;;;;3.03;1.77;;;;;;;23.82;36.82;99631.03;4177826;28;20297;-64
2022/08/13 01:33:20;;;;;;;2.07;1.87;;;;;;;23.71;37.02;99630.06;4177248;28;20242;-64
2022/08/13 01:35:25;;;;;;;3.67;1.80;;;;;;;23.94;37.10;99624.44;4173124;28;20239;-63
2022/08/13 01:37:27;;;;;;;3.90;2.17;;;;;;;23.82;37.02;99631.84;4178112;28;20251;-63
2022/08/13 01:39:29;;;;;;;2.27;2.03;;;;;;;22.97;37.94;99631.84;4175102;28;20297;-63
2022/08/13 01:41:39;;;;;;;2.00;1.80;;;;;;;23.20;37.96;99632.78;4178484;28;20232;-63
2022/08/13 01:44:05;;;;;;;2.93;1.77;;;;;;;23.11;38.07;99634.25;4174565;28;20613;-63
2022/08/13 01:46:20;;;;;;;1.80;1.70;;;;;;;22.60;38.52;99631.41;4175768;28;20231;-63
2022/08/13 01:51:03;;;;;;;3.60;2.00;;;;;;;22.07;39.83;99604.34;4174119;28;21557;-63
2022/08/13 01:53:20;;;;;;;2.77;2.17;;;;;;;22.70;38.71;99604.50;4173618;28;20320;-63
2022/08/13 01:55:23;;;;;;;2.90;2.03;;;;;;;22.86;38.43;99618.31;4173783;28;20247;-63
2022/08/13 01:57:46;;;;;;;2.70;1.90;;;;;;;22.60;38.91;99623.28;4173821;28;20259;-63
2022/08/13 01:59:53;;;;;;;4.20;2.10;;;;;;;23.05;37.98;99627.91;4173640;28;20227;-64
2022/08/13 02:02:04;;;;;;;3.60;1.90;;;;;;;23.13;38.17;99630.22;4175320;28;20235;-64
2022/08/13 02:04:26;;;;;;;3.47;2.73;;;;;;;22.70;38.81;99645.16;4175164;28;20259;-64
2022/08/13 02:06:30;;;;;;;4.10;1.77;;;;;;;22.99;38.45;99632.41;4177173;28;20654;-64
2022/08/13 02:08:36;;;;;;;2.00;1.90;;;;;;;22.92;38.55;99634.47;4174246;28;20226;-64
2022/08/13 02:10:44;;;;;;;2.00;1.80;;;;;;;22.83;38.63;99642.13;4177337;28;21030;-64
2022/08/13 02:12:46;;;;;;;3.40;1.70;;;;;;;22.56;38.94;99646.50;4178932;28;21046;-64
2022/08/13 02:14:49;;;;;;;4.53;2.20;;;;;;;22.58;38.95;99639.78;4173936;28;20302;-63
2022/08/13 02:16:51;;;;;;;2.97;1.90;;;;;;;22.39;39.46;99636.44;4175392;28;20244;-64
2022/08/13 02:18:54;;;;;;;3.90;1.77;;;;;;;23.35;37.82;99633.03;4176057;28;20893;-64
2022/08/13 02:20:57;;;;;;;5.00;2.00;;;;;;;22.91;38.43;99648.22;4175251;28;20232;-64
2022/08/13 02:23:02;;;;;;;1.93;1.50;;;;;;;23.05;38.18;99641.47;4177060;28;20239;-64
2022/08/13 02:25:05;;;;;;;2.30;1.70;;;;;;;22.64;39.10;99636.09;4173469;28;20228;-64
2022/08/13 02:27:13;;;;;;;3.83;1.97;;;;;;;22.98;38.34;99638.91;4173686;28;21139;-64
2022/08/13 02:29:15;;;;;;;1.60;1.50;;;;;;;22.62;38.84;99648.25;4180144;28;20672;-64
2022/08/13 02:31:20;;;;;;;2.00;1.77;;;;;;;23.25;38.18;99642.88;4173388;28;20231;-63
2022/08/13 02:33:42;;;;;;;4.07;1.80;;;;;;;23.60;37.56;99647.28;4174540;28;20266;-64
2022/08/13 02:35:45;;;;;;;1.93;1.83;;;;;;;22.43;39.33;99663.84;4177892;28;20236;-64
2022/08/13 02:37:48;;;;;;;2.13;1.83;;;;;;;22.85;38.57;99660.88;4177662;28;20234;-63
2022/08/13 02:40:00;;;;;;;2.07;1.80;;;;;;;23.13;38.25;99642.94;4174842;28;20781;-64
2022/08/13 02:42:05;;;;;;;5.00;2.03;;;;;;;23.20;38.15;99644.44;4171425;28;20700;-64
2022/08/13 02:44:16;;;;;;;2.40;1.83;;;;;;;22.84;38.60;99660.06;4172968;28;20841;-64
2022/08/13 02:46:21;;;;;;;2.80;1.83;;;;;;;22.05;39.69;99663.31;4175381;28;20231;-64
2022/08/13 02:48:24;;;;;;;2.13;1.87;;;;;;;23.01;38.53;99643.88;4175149;28;20229;-64
2022/08/13 02:50:27;;;;;;;3.20;1.83;;;;;;;22.20;39.75;99670.09;4175782;28;20296;-64
2022/08/13 02:52:44;;;;;;;2.23;1.73;;;;;;;22.54;39.23;99648.63;4174749;28;20246;-64
2022/08/13 02:54:59;;;;;;;2.73;2.07;;;;;;;21.53;40.83;99649.66;4173882;28;20235;-64
2022/08/13 02:57:01;;;;;;;2.43;1.97;;;;;;;22.17;39.69;99638.94;4176687;28;20289;-64
2022/08/13 02:59:10;;;;;;;3.63;1.70;;;;;;;22.41;39.46;99634.28;4174266;28;20239;-64
2022/08/13 03:01:34;;;;;;;3.23;1.87;;;;;;;22.24;39.70;99644.22;4169887;28;20270;-64
2022/08/13 03:03:55;;;;;;;1.90;1.80;;;;;;;22.40;39.60;99648.88;4171368;28;20830;-64
2022/08/13 03:05:58;;;;;;;3.97;2.00;;;;;;;21.71;40.09;99664.97;4174025;28;20663;-64
2022/08/13 03:08:03;;;;;;;3.43;2.10;;;;;;;21.92;40.40;99637.31;4171905;28;20888;-64
2022/08/13 03:10:12;;;;;;;2.83;1.93;;;;;;;21.66;40.53;99656.72;4174774;28;20241;-64
2022/08/13 03:12:20;;;;;;;3.27;1.90;;;;;;;22.30;39.73;99627.00;4174952;28;20235;-64
2022/08/13 03:14:35;;;;;;;2.10;1.90;;;;;;;22.27;39.83;99635.59;4171838;28;20239;-64
2022/08/13 03:16:40;;;;;;;3.90;1.90;;;;;;;22.12;40.10;99646.94;4174841;28;20261;-64
2022/08/13 03:18:47;;;;;;;3.03;1.87;;;;;;;22.09;40.28;99655.53;4175212;28;20236;-63
2022/08/13 03:20:54;;;;;;;1.60;1.50;;;;;;;22.43;39.73;99658.44;4175098;28;20287;-64
2022/08/13 03:22:58;;;;;;;2.13;1.93;;;;;;;21.95;40.24;99657.69;4174068;28;20249;-64
2022/08/13 03:25:00;;;;;;;2.70;1.80;;;;;;;22.04;40.22;99650.81;4173066;28;20884;-64
2022/08/13 03:27:02;;;;;;;2.30;1.73;;;;;;;22.43;39.79;99639.47;4176853;28;20235;-64
2022/08/13 03:29:06;;;;;;;2.10;1.90;;;;;;;21.41;41.41;99660.44;4176911;28;20301;-64
2022/08/13 03:31:08;;;;;;;2.03;1.93;;;;;;;21.65;41.22;99645.09;4172551;28;20239;-64
2022/08/13 03:33:13;;;;;;;3.13;2.10;;;;;;;21.96;40.75;99643.06;4174489;28;20242;-64
2022/08/13 03:35:25;;;;;;;2.07;1.70;;;;;;;22.23;40.38;99629.00;4176440;28;20713;-64
2022/08/13 03:37:48;;;;;;;2.50;1.87;;;;;;;22.55;39.89;99642.16;4172353;28;20531;-64
2022/08/13 03:39:52;;;;;;;2.93;2.00;;;;;;;22.18;40.21;99656.00;4170393;28;20262;-63
2022/08/13 03:41:55;;;;;;;3.93;1.80;;;;;;;22.09;40.39;99659.06;4171678;28;20251;-63
2022/08/13 03:44:02;;;;;;;3.13;2.40;;;;;;;21.99;40.57;99663.44;4175958;28;20318;-64
2022/08/13 03:46:20;;;;;;;2.80;1.90;;;;;;;22.03;40.82;99649.16;4176743;28;20227;-64
2022/08/13 03:48:27;;;;;;;2.93;1.90;;;;;;;22.07;40.44;99658.47;4182744;28;20223;-64
2022/08/13 03:50:29;;;;;;;3.53;1.80;;;;;;;21.63;41.05;99651.78;4172423;28;20817;-64
2022/08/13 03:52:33;;;;;;;2.10;1.80;;;;;;;21.66;41.04;99659.44;4173447;28;20322;-64
2022/08/13 03:54:38;;;;;;;2.33;2.13;;;;;;;21.73;41.10;99649.31;4172150;28;20720;-64
2022/08/13 03:56:39;;;;;;;5.17;2.20;;;;;;;21.72;40.98;99662.03;4179590;28;20247;-64
2022/08/13 03:58:56;;;;;;;2.40;1.83;;;;;;;21.70;41.20;99657.91;4176988;28;20311;-64
2022/08/13 04:01:01;;;;;;;2.00;1.90;;;;;;;21.63;41.12;99654.47;4175147;28;20687;-65
2022/08/13 04:03:21;;;;;;;2.20;2.00;;;;;;;21.07;42.06;99670.94;4174701;28;20643;-64
2022/08/13 04:05:22;;;;;;;2.93;2.07;;;;;;;21.15;41.82;99654.38;4173218;28;20607;-64
2022/08/13 04:07:44;;;;;;;2.70;2.17;;;;;;;21.54;41.49;99653.97;4176771;28;20298;-64
2022/08/13 04:09:46;;;;;;;3.50;1.80;;;;;;;21.62;41.02;99669.06;4177652;28;20239;-64
2022/08/13 04:11:56;;;;;;;2.87;2.00;;;;;;;21.88;41.02;99660.50;4172179;28;20227;-64
2022/08/13 04:14:06;;;;;;;3.00;2.00;;;;;;;21.99;40.84;99644.50;4173372;28;20239;-64
2022/08/13 04:16:28;;;;;;;5.73;2.10;;;;;;;21.80;40.94;99657.31;4175684;28;20712;-64
2022/08/13 04:18:35;;;;;;;2.20;2.00;;;;;;;21.82;40.99;99652.50;4175013;28;20265;-64
2022/08/13 04:20:42;;;;;;;2.87;2.00;;;;;;;21.18;42.15;99682.84;4175613;28;20306;-64
2022/08/13 04:22:44;;;;;;;2.20;2.00;;;;;;;21.58;41.46;99673.28;4175568;28;20277;-63
2022/08/13 04:24:50;;;;;;;2.13;1.60;;;;;;;21.31;41.75;99674.53;4173303;28;20228;-64
2022/08/13 04:26:52;;;;;;;5.03;2.40;;;;;;;21.68;41.33;99652.75;4179463;28;20242;-63
2022/08/13 04:28:54;;;;;;;2.67;2.20;;;;;;;22.15;40.63;99645.63;4176201;28;20228;-64
2022/08/13 04:30:57;;;;;;;2.43;2.00;;;;;;;21.80;41.23;99666.28;4175732;28;20290;-63
2022/08/13 04:33:01;;;;;;;2.33;2.13;;;;;;;21.78;41.24;99672.97;4176004;28;20231;-64
2022/08/13 04:35:22;;;;;;;2.27;1.70;;;;;;;22.10;40.78;99666.13;4176116;28;20224;-64
2022/08/13 04:37:41;;;;;;;2.23;1.90;;;;;;;22.31;40.55;99687.44;4176118;28;20235;-64
2022/08/13 04:39:54;;;;;;;3.07;2.27;;;;;;;22.26;40.31;99693.53;4176392;28;20231;-63
2022/08/13 04:42:11;;;;;;;3.23;2.03;;;;;;;22.01;41.02;99700.03;4174500;28;20231;-64
2022/08/13 04:44:34;;;;;;;3.57;2.33;;;;;;;22.39;40.50;99700.59;4173509;28;20282;-64
2022/08/13 04:46:38;;;;;;;2.60;2.00;;;;;;;22.25;40.28;99719.81;4172780;28;20228;-64
2022/08/13 04:48:40;;;;;;;5.40;2.73;;;;;;;22.00;40.86;99714.63;4175427;28;20323;-63
2022/08/13 04:50:48;;;;;;;2.47;2.30;;;;;;;21.79;41.28;99723.34;4178306;28;20263;-64
2022/08/13 04:52:50;;;;;;;4.53;2.47;;;;;;;21.36;41.66;99725.25;4176078;28;20257;-63
2022/08/13 04:54:51;;;;;;;3.87;2.10;;;;;;;21.48;41.85;99707.16;4175680;28;20309;-63
2022/08/13 04:56:53;;;;;;;2.37;2.17;;;;;;;21.02;42.36;99714.03;4176869;28;20244;-63
2022/08/13 04:58:56;;;;;;;4.03;2.50;;;;;;;21.08;42.29;99705.03;4177604;28;20238;-63
2022/08/13 05:00:58;;;;;;;5.67;2.17;;;;;;;20.85;42.61;99696.78;4174479;28;20248;-63
2022/08/13 05:03:15;;;;;;;2.97;2.23;;;;;;;20.67;43.10;99684.13;4180161;28;20253;-64
2022/08/13 05:05:22;;;;;;;5.20;1.97;;;;;;;20.69;43.24;99676.66;4177430;28;20333;-63
2022/08/13 05:07:24;;;;;;;2.30;2.10;;;;;;;19.19;45.59;99700.03;4179461;28;20235;-63
2022/08/13 05:09:26;;;;;;;4.93;2.50;;;;;;;20.31;43.73;99656.13;4176983;28;20690;-63
2022/08/13 05:11:32;;;;;;;2.53;2.33;;;;;;;20.57;43.58;99652.28;4172640;28;20223;-64
2022/08/13 05:13:37;;;;;;;4.73;2.23;;;;;;;20.23;44.17;99651.84;4176516;28;20236;-63
2022/08/13 05:15:44;;;;;;;2.90;2.10;;;;;;;19.61;45.10;99682.31;4176697;28;20243;-63
2022/08/13 05:17:49;;;;;;;3.37;2.00;;;;;;;19.58;44.73;99669.25;4175653;28;20645;-63
2022/08/13 05:19:50;;;;;;;2.60;2.00;;;;;;;20.25;44.06;99634.34;4174989;28;20244;-63
2022/08/13 05:21:53;;;;;;;5.13;2.00;;;;;;;20.28;44.08;99649.31;4178402;28;20236;-63
2022/08/13 05:24:00;;;;;;;2.23;2.07;;;;;;;20.18;44.08;99665.16;4175267;28;20667;-63
2022/08/13 05:26:24;;;;;;;3.03;2.10;;;;;;;20.32;43.91;99661.28;4176686;28;20731;-63
2022/08/13 05:28:45;;;;;;;2.47;2.27;;;;;;;20.44;44.10;99653.25;4175742;28;20271;-63
2022/08/13 05:30:47;;;;;;;2.40;2.13;;;;;;;20.38;44.03;99656.84;4175129;28;20238;-63
2022/08/13 05:32:57;;;;;;;2.60;2.40;;;;;;;20.72;43.53;99670.75;4165062;28;20229;-63
2022/08/13 05:35:00;;;;;;;3.37;2.33;;;;;;;20.86;43.49;99674.94;4161858;28;20841;-63
2022/08/13 05:37:02;;;;;;;3.10;2.20;;;;;;;20.94;43.22;99681.94;4162760;28;20225;-63
2022/08/13 05:39:24;;;;;;;2.07;1.90;;;;;;;20.92;43.58;99686.72;4158375;28;20327;-63
2022/08/13 05:41:27;;;;;;;4.70;2.00;;;;;;;20.50;44.39;99682.06;4161067;28;20687;-64
2022/08/13 05:43:42;;;;;;;3.47;2.13;;;;;;;21.44;42.89;99673.47;4162144;28;20266;-63
2022/08/13 05:45:57;;;;;;;3.97;1.90;;;;;;;21.35;43.06;99673.00;4155128;28;20236;-63
2022/08/13 05:48:08;;;;;;;2.80;1.80;;;;;;;21.17;43.16;99695.56;4157740;28;20232;-63
2022/08/13 05:50:14;;;;;;;2.17;1.97;;;;;;;20.50;44.29;99736.09;4157627;28;20328;-63
2022/08/13 05:52:18;;;;;;;3.90;2.30;;;;;;;21.59;42.54;99702.78;4161443;28;20259;-63
2022/08/13 05:54:39;;;;;;;3.83;2.30;;;;;;;21.31;43.09;99723.22;4156155;28;20855;-63
2022/08/13 05:57:01;;;;;;;2.20;1.97;;;;;;;21.70;42.10;99733.69;4160352;28;20266;-64
2022/08/13 05:59:06;;;;;;;2.10;2.00;;;;;;;21.99;41.96;99712.97;4162918;28;20708;-64
2022/08/13 06:03:37;;;;;;;3.50;2.23;;;;;;;22.21;41.65;99724.03;4164958;28;20622;-63
2022/08/13 06:06:04;;;;;;;2.93;2.07;;;;;;;22.10;41.95;99722.16;4157953;28;20248;-63
2022/08/13 06:08:15;;;;;;;3.00;2.33;;;;;;;21.64;42.72;99726.50;4157648;28;20702;-63
2022/08/13 06:10:37;;;;;;;2.30;2.10;;;;;;;21.84;42.35;99747.81;4156151;28;20260;-63
2022/08/13 06:12:43;;;;;;;2.20;2.00;;;;;;;22.49;41.64;99737.91;4164793;28;20233;-64
2022/08/13 06:14:59;;;;;;;6.77;2.10;;;;;;;22.36;41.82;99730.91;4149185;28;20605;-63
2022/08/13 06:17:12;;;;;;;5.87;2.20;;;;;;;21.42;42.83;99764.03;4158336;28;20243;-63
2022/08/13 06:19:25;;;;;;;3.23;2.00;;;;;;;21.59;43.24;99724.44;4158152;28;20733;-63
2022/08/13 06:21:30;;;;;;;2.60;2.20;;;;;;;22.20;42.36;99711.56;4159609;28;20231;-63
2022/08/13 06:23:50;;;;;;;4.70;2.67;;;;;;;21.87;42.35;99747.34;4157887;28;20235;-63
2022/08/13 06:25:56;;;;;;;2.57;2.30;;;;;;;21.91;42.80;99716.84;4155871;28;20232;-63
2022/08/13 06:28:04;;;;;;;1.87;1.77;;;;;;;22.14;42.42;99728.75;4161138;28;20777;-63
2022/08/13 06:30:08;;;;;;;2.20;2.00;;;;;;;21.84;42.82;99753.22;4157396;28;20232;-63
2022/08/13 06:32:11;;;;;;;6.37;1.93;;;;;;;22.64;41.54;99725.53;4160104;28;20266;-63
2022/08/13 06:34:35;;;;;;;4.00;2.20;;;;;;;22.64;41.85;99730.94;4155787;28;20294;-64
2022/08/13 06:36:37;;;;;;;3.20;2.57;;;;;;;22.40;42.21;99754.53;4158316;28;20232;-63
2022/08/13 06:38:43;;;;;;;3.73;2.00;;;;;;;22.29;42.53;99749.97;4158807;28;20232;-64
2022/08/13 06:40:52;;;;;;;4.57;1.87;;;;;;;23.13;41.24;99754.16;4163222;28;20267;-63
2022/08/13 06:42:56;;;;;;;6.33;1.97;;;;;;;22.03;42.75;99789.94;4157823;28;20322;-63
2022/08/13 06:45:04;;;;;;;4.63;1.90;;;;;;;22.21;42.61;99769.25;4161430;28;20246;-63
2022/08/13 06:47:06;;;;;;;6.37;2.10;;;;;;;22.75;42.04;99748.25;4156766;28;20240;-63
2022/08/13 06:49:11;;;;;;;2.93;2.10;;;;;;;22.61;42.13;99755.00;4156455;28;20240;-64
2022/08/13 06:51:18;;;;;;;4.30;2.20;;;;;;;23.02;41.67;99772.13;4158399;28;20231;-63
2022/08/13 06:53:20;;;;;;;1.83;1.70;;;;;;;22.75;41.68;99796.22;4153874;28;20289;-64
2022/08/13 06:55:43;;;;;;;4.10;2.20;;;;;;;23.16;41.31;99780.78;4162085;28;20271;-64
2022/08/13 06:58:10;;;;;;;5.27;2.30;;;;;;;23.33;40.98;99776.25;4161199;28;20255;-64
2022/08/13 07:00:16;;;;;;;2.47;2.10;;;;;;;23.85;40.96;99782.56;4156824;28;20228;-63
2022/08/13 07:02:34;;;;;;;3.90;2.00;;;;;;;23.80;40.68;99788.75;4158117;28;20236;-64
2022/08/13 07:04:35;;;;;;;2.97;2.20;;;;;;;23.72;40.63;99809.00;4151521;28;20453;-64
2022/08/13 07:06:40;;;;;;;3.53;2.00;;;;;;;23.07;41.78;99803.94;4159837;28;20246;-64
2022/08/13 07:08:44;;;;;;;4.28;2.17;;;;;;;24.10;40.56;99803.88;4158179;28;20625;-63
2022/08/13 07:10:51;;;;;;;6.70;2.13;;;;;;;23.23;41.61;99821.31;4159816;28;20282;-64
2022/08/13 07:12:53;;;;;;;2.45;1.90;;;;;;;23.68;40.98;99809.72;4159309;28;20227;-64
2022/08/13 07:14:55;;;;;;;2.67;1.70;;;;;;;23.66;41.01;99814.56;4155115;28;20660;-64
2022/08/13 07:17:00;;;;;;;2.38;1.75;;;;;;;23.38;41.51;99811.59;4156184;28;20746;-63
2022/08/13 07:19:05;;;;;;;4.40;1.83;;;;;;;23.56;41.59;99798.91;4162614;28;20318;-65
2022/08/13 07:21:09;;;;;;;2.50;2.30;;;;;;;23.63;41.32;99806.91;4157115;28;20241;-64
2022/08/13 07:23:11;;;;;;;2.10;1.80;;;;;;;22.92;42.06;99831.53;4166525;28;20313;-64
2022/08/13 07:25:36;;;;;;;3.10;1.90;;;;;;;23.90;40.96;99796.25;4176411;28;20223;-64
2022/08/13 07:28:00;;;;;;;2.17;1.75;;;;;;;23.92;40.72;99796.81;4180602;28;20309;-64
2022/08/13 07:30:06;;;;;;;2.85;1.75;;;;;;;24.08;41.12;99795.19;4176032;28;20227;-65
2022/08/13 07:32:17;;;;;;;2.42;1.88;;;;;;;24.67;40.08;99792.78;4176215;28;20239;-64
2022/08/13 07:34:21;;;;;;;2.17;1.63;;;;;;;24.44;39.86;99803.88;4177239;28;20227;-64
2022/08/13 07:36:35;;;;;;;4.18;1.90;;;;;;;24.64;40.26;99815.03;4175693;28;20269;-64
2022/08/13 07:38:47;;;;;;;2.75;2.05;;;;;;;24.40;40.38;99817.16;4173549;28;20288;-64
2022/08/13 07:40:53;;;;;;;2.70;1.60;;;;;;;24.37;39.96;99830.41;4169613;28;20239;-64
2022/08/13 07:42:56;;;;;;;1.88;1.73;;;;;;;24.94;39.47;99808.38;4167701;28;20289;-64
2022/08/13 07:44:59;;;;;;;4.47;2.00;;;;;;;25.08;38.93;99822.41;4168043;28;20224;-65
2022/08/13 07:47:21;;;;;;;2.08;1.90;;;;;;;24.90;39.99;99815.38;4164029;28;20275;-64
2022/08/13 07:49:26;;;;;;;3.90;1.98;;;;;;;25.03;38.93;99815.00;4164123;28;20324;-64
2022/08/13 07:51:47;;;;;;;5.03;1.85;;;;;;;24.67;40.05;99825.41;4167581;28;20244;-64
2022/08/13 07:53:54;;;;;;;3.70;2.00;;;;;;;24.12;40.43;99839.78;4164466;28;20232;-64
2022/08/13 07:55:59;;;;;;;2.58;1.77;;;;;;;25.16;39.20;99810.28;4168849;28;20224;-64
2022/08/13 07:58:27;;;;;;;4.05;1.98;;;;;;;24.83;39.78;99825.63;4165632;28;21457;-64
2022/08/13 08:00:29;;;;;;;5.18;2.08;;;;;;;25.12;38.84;99839.88;4163773;28;20220;-64
2022/08/13 08:02:32;;;;;;;3.38;1.85;;;;;;;25.01;39.65;99830.75;4158070;28;20734;-65
2022/08/13 08:04:37;;;;;;;2.90;1.90;;;;;;;25.28;39.22;99816.38;4164096;28;20231;-64
2022/08/13 08:06:42;;;;;;;3.42;1.77;;;;;;;25.31;38.90;99820.50;4160553;28;20250;-64
2022/08/13 08:08:47;;;;;;;2.53;1.90;;;;;;;25.43;38.97;99821.22;4163077;28;20298;-63
2022/08/13 08:10:51;;;;;;;13.05;2.97;;;;;;;25.07;39.34;99828.94;4168106;28;20232;-63
2022/08/13 08:12:59;;;;;;;5.70;2.15;;;;;;;24.93;39.09;99823.03;4168272;28;20247;-64
2022/08/13 08:15:08;;;;;;;3.70;2.03;;;;;;;25.37;38.65;99814.06;4167053;28;20259;-64
2022/08/13 08:17:11;;;;;;;2.83;1.73;;;;;;;26.06;38.27;99809.81;4162553;28;20235;-64
2022/08/13 08:19:33;;;;;;;3.65;1.50;;;;;;;25.55;38.76;99831.94;4164010;28;20718;-64
2022/08/13 08:21:58;;;;;;;3.05;1.80;;;;;;;25.37;39.42;99831.22;4169497;28;20253;-65
2022/08/13 08:24:20;;;;;;;2.28;1.92;;;;;;;25.89;38.98;99802.56;4165114;28;20266;-65
2022/08/13 08:26:33;;;;;;;2.25;1.95;;;;;;;25.28;39.20;99830.00;4178415;28;20314;-64
2022/08/13 08:28:36;;;;;;;4.32;2.10;;;;;;;25.93;38.42;99824.66;4174973;28;20235;-63
2022/08/13 08:30:43;;;;;;;2.35;1.60;;;;;;;26.33;38.08;99810.53;4176884;28;20234;-63
2022/08/13 08:32:53;;;;;;;2.78;1.83;;;;;;;25.62;38.76;99835.28;4165750;28;20599;-64
2022/08/13 08:35:03;;;;;;;1.95;1.80;;;;;;;25.38;39.13;99819.25;4170647;28;20259;-64
2022/08/13 08:42:35;;;;;;;2.35;1.90;;;;;;;25.63;38.54;99822.47;4175084;28;20282;-67
2022/08/13 08:44:36;;;;;;;2.30;2.10;;;;;;;25.90;38.66;99814.28;4157495;28;20649;-64
2022/08/13 08:46:39;;;;;;;1.98;1.83;;;;;;;25.69;38.66;99824.97;4173867;28;20285;-64
2022/08/13 08:48:51;;;;;;;3.85;1.77;;;;;;;26.13;38.32;99822.13;4178032;28;20255;-64
2022/08/13 08:50:57;;;;;;;2.25;1.77;;;;;;;25.79;38.51;99825.06;4175280;28;20235;-64
2022/08/13 08:53:19;;;;;;;2.92;1.60;;;;;;;26.19;38.56;99808.56;4175795;28;20239;-64
2022/08/13 08:55:42;;;;;;;4.63;1.83;;;;;;;26.30;37.84;99815.69;4172167;28;20251;-64
2022/08/13 08:57:54;;;;;;;4.70;2.00;;;;;;;26.39;38.01;99816.03;4175913;28;20239;-63
2022/08/13 08:59:56;;;;;;;1.63;1.52;;;;;;;26.37;37.64;99819.03;4178152;28;20306;-64
2022/08/13 09:01:59;;;;;;;3.22;1.83;;;;;;;25.95;38.54;99817.91;4178991;28;20240;-64
2022/08/13 09:04:05;;;;;;;2.28;1.95;;;;;;;26.34;37.95;99806.72;4178100;28;20238;-63
2022/08/13 09:06:09;;;;;;;2.47;2.20;;;;;;;26.42;37.72;99819.06;4179111;28;20236;-64
2022/08/13 09:08:20;;;;;;;3.22;1.50;;;;;;;26.87;37.29;99808.69;4178131;28;20257;-64
2022/08/13 09:10:23;;;;;;;4.05;1.65;;;;;;;26.92;37.01;99811.41;4178794;28;20263;-64
2022/08/13 09:12:32;;;;;;;2.92;1.88;;;;;;;27.26;36.92;99800.94;4176005;28;20223;-64
2022/08/13 09:14:34;;;;;;;1.90;1.80;;;;;;;26.64;37.32;99810.75;4175347;28;20286;-64
2022/08/13 09:16:39;;;;;;;2.25;1.70;;;;;;;26.77;37.48;99795.81;4176599;28;20236;-63
2022/08/13 09:18:42;;;;;;;3.38;1.80;;;;;;;26.44;37.67;99797.00;4175267;28;20294;-64
2022/08/13 09:20:45;;;;;;;1.92;1.65;;;;;;;27.20;36.96;99788.34;4171386;28;20236;-63
2022/08/13 09:23:07;;;;;;;4.00;1.67;;;;;;;27.38;36.70;99792.50;4172627;28;20235;-63
2022/08/13 09:25:18;;;;;;;2.88;1.73;;;;;;;27.49;36.63;99787.84;4176429;28;20354;-64
2022/08/13 09:27:20;;;;;;;3.58;1.70;;;;;;;27.02;36.84;99800.53;4177963;28;20243;-65
2022/08/13 09:29:23;;;;;;;3.53;1.60;;;;;;;27.01;37.27;99796.19;4174019;28;20285;-64
2022/08/13 09:31:25;;;;;;;2.95;1.70;;;;;;;27.30;36.88;99784.00;4176934;28;20247;-65
2022/08/13 09:33:39;;;;;;;2.75;1.77;;;;;;;26.68;37.43;99789.22;4179567;28;20274;-65
2022/08/13 09:36:00;;;;;;;1.60;1.50;;;;;;;27.90;36.05;99774.22;4174352;28;20888;-65
2022/08/13 09:38:06;;;;;;;1.60;1.50;;;;;;;27.26;36.62;99794.63;4176043;28;20231;-65
2022/08/13 09:40:14;;;;;;;2.72;1.70;;;;;;;28.12;35.62;99789.50;4175059;28;20608;-65
2022/08/13 09:42:46;;;;;;;3.92;1.45;;;;;;;27.98;35.46;99789.25;4173756;28;20258;-64
2022/08/13 09:44:49;;;;;;;2.45;1.73;;;;;;;28.22;35.13;99786.78;4175903;28;20247;-64
2022/08/13 09:46:52;;;;;;;4.38;1.50;;;;;;;27.12;36.07;99804.44;4165851;28;20232;-64
2022/08/13 09:48:55;;;;;;;2.35;1.48;;;;;;;28.30;35.15;99771.75;4157374;28;20310;-64
2022/08/13 09:51:02;;;;;;;3.15;1.83;;;;;;;27.82;35.24;99791.19;4159959;28;21116;-65
2022/08/13 09:53:15;;;;;;;2.50;1.50;;;;;;;28.03;34.68;99791.19;4162480;28;21024;-65
2022/08/13 09:55:23;;;;;;;2.47;1.60;;;;;;;28.24;34.38;99794.72;4163398;28;20303;-65
2022/08/13 09:58:04;;;;;;;1.80;1.70;;;;;;;29.03;34.37;99770.41;4165790;28;20247;-65
2022/08/13 10:00:24;;;;;;;2.63;1.52;;;;;;;28.01;35.02;99780.53;4163868;28;20227;-65
2022/08/13 10:02:26;;;;;;;2.78;1.75;;;;;;;28.54;34.28;99788.34;4162805;28;20224;-64
2022/08/13 10:04:30;;;;;;;3.20;1.50;;;;;;;28.57;34.46;99779.59;4165854;28;20612;-64
2022/08/13 10:06:34;;;;;;;1.88;1.50;;;;;;;29.06;33.92;99781.59;4166829;28;20679;-65
2022/08/13 10:08:38;;;;;;;2.55;1.67;;;;;;;28.42;34.63;99782.38;4165958;28;20286;-64
2022/08/13 10:10:46;;;;;;;3.90;1.85;;;;;;;28.60;34.16;99772.78;4162201;28;20276;-64
2022/08/13 10:12:49;;;;;;;4.65;1.52;;;;;;;28.77;34.28;99778.75;4155790;28;20248;-64
2022/08/13 10:14:53;;;;;;;2.72;1.60;;;;;;;28.39;34.42;99770.06;4164895;28;20241;-64
2022/08/13 10:16:58;;;;;;;5.85;1.52;;;;;;;29.14;33.44;99762.97;4165580;28;20243;-64
2022/08/13 10:19:02;;;;;;;4.57;1.67;;;;;;;29.24;33.52;99771.13;4165756;28;20236;-64